EZY75NE EGCC-LEPA
Flight info
| Callsign | EZY75NE |
|---|---|
| Flight time | 2h 9m |
| Altitude | 37000 |
| Route | LISTO P18 TELBA L151 KIDLI UN859 SOPIL DCT BALAN DCT EVPOK DCT NARAK DCT GAI DCT LOMRA DCT ROCAN DCT IBRAP DCT LUKEV DCT LORES |
| Aircraft | A320/M-SDE3FGHIRWY/LB1 |
Departure
| Time | 2026-05-06 09:06 |
|---|---|
| Airport | Manchester Airport (EGCC) |
Arrival
| Time | 2026-05-06 11:16 |
|---|---|
| Airport | Palma de Mallorca Airport (LEPA) |
| Time | Latitude | Longitude | Altitude | Speed | Heading |
|---|---|---|---|---|---|
| 2026-05-06 08:43 | 53.36988 | -2.28948 | 255 ft | 0 kts | 315° |
| 2026-05-06 08:52 | 53.36977 | -2.28930 | 255 ft | 4 kts | 315° |
| 2026-05-06 08:53 | 53.36962 | -2.28905 | 255 ft | 4 kts | 297° |
| 2026-05-06 08:53 | 53.36963 | -2.28873 | 255 ft | 4 kts | 227° |
| 2026-05-06 08:53 | 53.36980 | -2.28844 | 255 ft | 2 kts | 225° |
| 2026-05-06 08:53 | 53.36981 | -2.28842 | 255 ft | 0 kts | 225° |
| 2026-05-06 08:56 | 53.36972 | -2.28857 | 255 ft | 3 kts | 224° |
| 2026-05-06 08:57 | 53.36957 | -2.28884 | 255 ft | 5 kts | 225° |
| 2026-05-06 08:57 | 53.36922 | -2.28942 | 255 ft | 10 kts | 225° |
| 2026-05-06 08:57 | 53.36865 | -2.29037 | 255 ft | 12 kts | 225° |
| 2026-05-06 08:57 | 53.36796 | -2.29097 | 255 ft | 11 kts | 201° |
| 2026-05-06 08:58 | 53.36730 | -2.29100 | 255 ft | 9 kts | 145° |
| 2026-05-06 08:58 | 53.36687 | -2.29028 | 255 ft | 11 kts | 135° |
| 2026-05-06 08:58 | 53.36637 | -2.28931 | 255 ft | 10 kts | 119° |
| 2026-05-06 08:58 | 53.36597 | -2.28827 | 255 ft | 12 kts | 123° |
| 2026-05-06 08:59 | 53.36548 | -2.28706 | 255 ft | 14 kts | 131° |
| 2026-05-06 08:59 | 53.36478 | -2.28588 | 255 ft | 14 kts | 135° |
| 2026-05-06 08:59 | 53.36399 | -2.28484 | 255 ft | 15 kts | 161° |
| 2026-05-06 08:59 | 53.36314 | -2.28421 | 255 ft | 13 kts | 137° |
| 2026-05-06 09:00 | 53.36247 | -2.28305 | 255 ft | 14 kts | 134° |
| 2026-05-06 09:00 | 53.36168 | -2.28173 | 255 ft | 19 kts | 134° |
| 2026-05-06 09:00 | 53.36067 | -2.28011 | 255 ft | 21 kts | 141° |
| 2026-05-06 09:00 | 53.35987 | -2.27895 | 255 ft | 13 kts | 141° |
| 2026-05-06 09:01 | 53.35897 | -2.27849 | 255 ft | 14 kts | 184° |
| 2026-05-06 09:01 | 53.35794 | -2.27867 | 250 ft | 16 kts | 186° |
| 2026-05-06 09:01 | 53.35679 | -2.27886 | 243 ft | 16 kts | 185° |
| 2026-05-06 09:01 | 53.35582 | -2.27990 | 238 ft | 18 kts | 231° |
| 2026-05-06 09:02 | 53.35484 | -2.28132 | 234 ft | 18 kts | 205° |
| 2026-05-06 09:02 | 53.35372 | -2.28170 | 235 ft | 16 kts | 189° |
| 2026-05-06 09:02 | 53.35261 | -2.28246 | 232 ft | 19 kts | 217° |
| 2026-05-06 09:02 | 53.35179 | -2.28408 | 229 ft | 19 kts | 232° |
| 2026-05-06 09:03 | 53.35097 | -2.28577 | 229 ft | 17 kts | 229° |
| 2026-05-06 09:03 | 53.35025 | -2.28718 | 228 ft | 16 kts | 229° |
| 2026-05-06 09:03 | 53.34949 | -2.28854 | 226 ft | 15 kts | 226° |
| 2026-05-06 09:03 | 53.34872 | -2.28990 | 221 ft | 18 kts | 226° |
| 2026-05-06 09:04 | 53.34790 | -2.29146 | 216 ft | 17 kts | 231° |
| 2026-05-06 09:04 | 53.34729 | -2.29269 | 211 ft | 8 kts | 228° |
| 2026-05-06 09:04 | 53.34697 | -2.29314 | 210 ft | 1 kts | 210° |
| 2026-05-06 09:04 | 53.34686 | -2.29323 | 211 ft | 7 kts | 205° |
| 2026-05-06 09:05 | 53.34614 | -2.29341 | 213 ft | 10 kts | 174° |
| 2026-05-06 09:05 | 53.34560 | -2.29305 | 219 ft | 8 kts | 144° |
| 2026-05-06 09:05 | 53.34532 | -2.29246 | 213 ft | 5 kts | 92° |
| 2026-05-06 09:05 | 53.34559 | -2.29180 | 216 ft | 12 kts | 51° |
| 2026-05-06 09:06 | 53.34711 | -2.28868 | 221 ft | 68 kts | 51° |
| 2026-05-06 09:06 | 53.35144 | -2.27973 | 233 ft | 130 kts | 51° |
| 2026-05-06 09:06 | 53.35809 | -2.26608 | 481 ft | 158 kts | 50° |
| 2026-05-06 09:06 | 53.36498 | -2.25175 | 1354 ft | 156 kts | 51° |
| 2026-05-06 09:07 | 53.37202 | -2.23709 | 1896 ft | 169 kts | 54° |
| 2026-05-06 09:07 | 53.37514 | -2.21815 | 2396 ft | 182 kts | 99° |
| 2026-05-06 09:07 | 53.36798 | -2.20049 | 2996 ft | 195 kts | 146° |
| 2026-05-06 09:07 | 53.35540 | -2.19089 | 3529 ft | 208 kts | 155° |
| 2026-05-06 09:08 | 53.34109 | -2.18153 | 3878 ft | 233 kts | 158° |
| 2026-05-06 09:08 | 53.32459 | -2.17419 | 4319 ft | 259 kts | 171° |
| 2026-05-06 09:08 | 53.30602 | -2.17436 | 4972 ft | 274 kts | 184° |
| 2026-05-06 09:08 | 53.28677 | -2.17689 | 5827 ft | 281 kts | 185° |
| 2026-05-06 09:09 | 53.26712 | -2.17969 | 6732 ft | 284 kts | 186° |
| 2026-05-06 09:09 | 53.24727 | -2.18264 | 7598 ft | 289 kts | 186° |
| 2026-05-06 09:09 | 53.22717 | -2.18574 | 8478 ft | 292 kts | 186° |
| 2026-05-06 09:09 | 53.20686 | -2.18892 | 9388 ft | 294 kts | 187° |
| 2026-05-06 09:10 | 53.18633 | -2.19217 | 10230 ft | 299 kts | 187° |
| 2026-05-06 09:10 | 53.16486 | -2.19563 | 10549 ft | 322 kts | 187° |
| 2026-05-06 09:10 | 53.14188 | -2.19884 | 11001 ft | 338 kts | 181° |
| 2026-05-06 09:10 | 53.11825 | -2.19499 | 11708 ft | 344 kts | 174° |
| 2026-05-06 09:11 | 53.09438 | -2.18975 | 12493 ft | 347 kts | 174° |
| 2026-05-06 09:11 | 53.07031 | -2.18445 | 13273 ft | 350 kts | 174° |
| 2026-05-06 09:11 | 53.04608 | -2.17912 | 14012 ft | 353 kts | 174° |
| 2026-05-06 09:11 | 53.02156 | -2.17378 | 14683 ft | 356 kts | 174° |
| 2026-05-06 09:12 | 53.00530 | -2.17021 | 15126 ft | 358 kts | 174° |
| 2026-05-06 09:12 | 52.98048 | -2.16477 | 15804 ft | 361 kts | 174° |
| 2026-05-06 09:12 | 52.95550 | -2.15935 | 16451 ft | 364 kts | 174° |
| 2026-05-06 09:12 | 52.93025 | -2.15389 | 17116 ft | 367 kts | 174° |
| 2026-05-06 09:13 | 52.90482 | -2.14835 | 17779 ft | 370 kts | 174° |
| 2026-05-06 09:13 | 52.87915 | -2.14274 | 18426 ft | 373 kts | 175° |
| 2026-05-06 09:13 | 52.85332 | -2.13710 | 18980 ft | 376 kts | 175° |
| 2026-05-06 09:13 | 52.82730 | -2.13144 | 19533 ft | 379 kts | 175° |
| 2026-05-06 09:14 | 52.80106 | -2.12575 | 20093 ft | 381 kts | 175° |
| 2026-05-06 09:14 | 52.77471 | -2.11952 | 20632 ft | 385 kts | 170° |
| 2026-05-06 09:14 | 52.74926 | -2.10476 | 21146 ft | 391 kts | 158° |
| 2026-05-06 09:14 | 52.72423 | -2.08645 | 21695 ft | 394 kts | 158° |
| 2026-05-06 09:15 | 52.69916 | -2.06783 | 22233 ft | 397 kts | 158° |
| 2026-05-06 09:15 | 52.67393 | -2.04893 | 22739 ft | 399 kts | 158° |
| 2026-05-06 09:15 | 52.64859 | -2.02993 | 23244 ft | 402 kts | 158° |
| 2026-05-06 09:15 | 52.62294 | -2.01076 | 23727 ft | 405 kts | 158° |
| 2026-05-06 09:16 | 52.59724 | -1.99165 | 24139 ft | 407 kts | 158° |
| 2026-05-06 09:16 | 52.57135 | -1.97254 | 24570 ft | 409 kts | 158° |
| 2026-05-06 09:16 | 52.54564 | -1.95366 | 24969 ft | 411 kts | 158° |
| 2026-05-06 09:16 | 52.51947 | -1.93443 | 25365 ft | 413 kts | 158° |
| 2026-05-06 09:17 | 52.49315 | -1.91511 | 25750 ft | 416 kts | 158° |
| 2026-05-06 09:17 | 52.46671 | -1.89568 | 26135 ft | 418 kts | 158° |
| 2026-05-06 09:17 | 52.44004 | -1.87602 | 26518 ft | 420 kts | 158° |
| 2026-05-06 09:17 | 52.41332 | -1.85635 | 26910 ft | 423 kts | 158° |
| 2026-05-06 09:18 | 52.38636 | -1.83657 | 27287 ft | 425 kts | 158° |
| 2026-05-06 09:18 | 52.35927 | -1.81680 | 27646 ft | 428 kts | 158° |
| 2026-05-06 09:18 | 52.33197 | -1.79694 | 28005 ft | 430 kts | 158° |
| 2026-05-06 09:18 | 52.30455 | -1.77696 | 28367 ft | 432 kts | 158° |
| 2026-05-06 09:19 | 52.27697 | -1.75684 | 28723 ft | 435 kts | 158° |
| 2026-05-06 09:19 | 52.24929 | -1.73667 | 29050 ft | 437 kts | 158° |
| 2026-05-06 09:19 | 52.22142 | -1.71639 | 29359 ft | 440 kts | 158° |
| 2026-05-06 09:19 | 52.19335 | -1.69599 | 29689 ft | 442 kts | 158° |
| 2026-05-06 09:20 | 52.16515 | -1.67553 | 30032 ft | 445 kts | 158° |
| 2026-05-06 09:20 | 52.13686 | -1.65502 | 30317 ft | 447 kts | 158° |
| 2026-05-06 09:20 | 52.10837 | -1.63440 | 30593 ft | 448 kts | 158° |
| 2026-05-06 09:20 | 52.07979 | -1.61376 | 30863 ft | 450 kts | 158° |
| 2026-05-06 09:21 | 52.05110 | -1.59311 | 31136 ft | 452 kts | 158° |
| 2026-05-06 09:21 | 52.02230 | -1.57244 | 31403 ft | 454 kts | 158° |
| 2026-05-06 09:21 | 51.99344 | -1.55177 | 31733 ft | 453 kts | 158° |
| 2026-05-06 09:21 | 51.96457 | -1.53114 | 32122 ft | 452 kts | 158° |
| 2026-05-06 09:22 | 51.93583 | -1.51064 | 32504 ft | 451 kts | 158° |
| 2026-05-06 09:22 | 51.90721 | -1.49020 | 32880 ft | 450 kts | 158° |
| 2026-05-06 09:22 | 51.87863 | -1.46975 | 33283 ft | 448 kts | 158° |
| 2026-05-06 09:22 | 51.85015 | -1.44939 | 33678 ft | 447 kts | 158° |
| 2026-05-06 09:23 | 51.82169 | -1.42906 | 34035 ft | 447 kts | 158° |
| 2026-05-06 09:23 | 51.79324 | -1.40879 | 34324 ft | 446 kts | 158° |
| 2026-05-06 09:23 | 51.76479 | -1.38858 | 34570 ft | 447 kts | 158° |
| 2026-05-06 09:23 | 51.73671 | -1.36865 | 34826 ft | 447 kts | 158° |
| 2026-05-06 09:24 | 51.70822 | -1.34845 | 35074 ft | 447 kts | 158° |
| 2026-05-06 09:24 | 51.67972 | -1.32826 | 35334 ft | 447 kts | 158° |
| 2026-05-06 09:24 | 51.65130 | -1.30818 | 35617 ft | 446 kts | 158° |
| 2026-05-06 09:24 | 51.62286 | -1.28807 | 35892 ft | 446 kts | 158° |
| 2026-05-06 09:25 | 51.59448 | -1.26803 | 36148 ft | 445 kts | 158° |
| 2026-05-06 09:25 | 51.56613 | -1.24813 | 36387 ft | 445 kts | 158° |
| 2026-05-06 09:25 | 51.53774 | -1.22826 | 36597 ft | 445 kts | 158° |
| 2026-05-06 09:25 | 51.50935 | -1.20839 | 36836 ft | 445 kts | 158° |
| 2026-05-06 09:26 | 51.48098 | -1.18848 | 36990 ft | 445 kts | 158° |
| 2026-05-06 09:26 | 51.42450 | -1.14898 | 37017 ft | 442 kts | 158° |
| 2026-05-06 09:27 | 51.36813 | -1.10969 | 37010 ft | 441 kts | 158° |
| 2026-05-06 09:27 | 51.31180 | -1.07045 | 36998 ft | 442 kts | 158° |
| 2026-05-06 09:28 | 51.25532 | -1.03125 | 37002 ft | 442 kts | 158° |
| 2026-05-06 09:28 | 51.19880 | -0.99224 | 37003 ft | 442 kts | 158° |
| 2026-05-06 09:29 | 51.14237 | -0.95334 | 37003 ft | 442 kts | 158° |
| 2026-05-06 09:29 | 51.08593 | -0.91444 | 36998 ft | 442 kts | 159° |
| 2026-05-06 09:30 | 51.02945 | -0.87563 | 36993 ft | 443 kts | 158° |
| 2026-05-06 09:30 | 50.97282 | -0.83682 | 36992 ft | 443 kts | 159° |
| 2026-05-06 09:31 | 50.91658 | -0.79865 | 36993 ft | 443 kts | 159° |
| 2026-05-06 09:31 | 50.86003 | -0.75970 | 36990 ft | 443 kts | 154° |
| 2026-05-06 09:32 | 50.80756 | -0.70833 | 36994 ft | 444 kts | 148° |
| 2026-05-06 09:32 | 50.75569 | -0.65530 | 36997 ft | 444 kts | 148° |
| 2026-05-06 09:33 | 50.70374 | -0.60252 | 36995 ft | 444 kts | 148° |
| 2026-05-06 09:33 | 50.65183 | -0.54998 | 36997 ft | 444 kts | 148° |
| 2026-05-06 09:34 | 50.59977 | -0.49751 | 36994 ft | 444 kts | 148° |
| 2026-05-06 09:34 | 50.54803 | -0.44542 | 36987 ft | 445 kts | 149° |
| 2026-05-06 09:35 | 50.49585 | -0.39296 | 36984 ft | 446 kts | 149° |
| 2026-05-06 09:35 | 50.44358 | -0.34061 | 36987 ft | 446 kts | 149° |
| 2026-05-06 09:36 | 50.39126 | -0.28833 | 36979 ft | 446 kts | 149° |
| 2026-05-06 09:36 | 50.33884 | -0.23614 | 36993 ft | 446 kts | 148° |
| 2026-05-06 09:37 | 50.28646 | -0.18410 | 36996 ft | 446 kts | 149° |
| 2026-05-06 09:37 | 50.23414 | -0.13232 | 37011 ft | 445 kts | 148° |
| 2026-05-06 09:38 | 50.18184 | -0.08066 | 37002 ft | 444 kts | 149° |
| 2026-05-06 09:38 | 50.15465 | -0.05825 | 37000 ft | 441 kts | 161° |
| 2026-05-06 09:38 | 50.12534 | -0.04415 | 37003 ft | 440 kts | 165° |
| 2026-05-06 09:39 | 50.06653 | -0.01785 | 36998 ft | 439 kts | 165° |
| 2026-05-06 09:39 | 50.00776 | 0.00805 | 37000 ft | 439 kts | 165° |
| 2026-05-06 09:40 | 49.94953 | 0.03381 | 36994 ft | 437 kts | 165° |
| 2026-05-06 09:40 | 49.86184 | 0.07259 | 36997 ft | 436 kts | 165° |
| 2026-05-06 09:41 | 49.80342 | 0.09828 | 36980 ft | 436 kts | 165° |
| 2026-05-06 09:41 | 49.74504 | 0.12387 | 36976 ft | 436 kts | 165° |
| 2026-05-06 09:42 | 49.68664 | 0.14952 | 36963 ft | 437 kts | 165° |
| 2026-05-06 09:42 | 49.62815 | 0.17509 | 36961 ft | 437 kts | 165° |
| 2026-05-06 09:43 | 49.56958 | 0.20067 | 36963 ft | 437 kts | 165° |
| 2026-05-06 09:43 | 49.51103 | 0.22608 | 36959 ft | 438 kts | 165° |
| 2026-05-06 09:44 | 49.45228 | 0.25157 | 36958 ft | 439 kts | 165° |
| 2026-05-06 09:44 | 49.39344 | 0.27714 | 36961 ft | 440 kts | 165° |
| 2026-05-06 09:45 | 49.33444 | 0.30260 | 36970 ft | 441 kts | 165° |
| 2026-05-06 09:45 | 49.27578 | 0.32774 | 36970 ft | 441 kts | 166° |
| 2026-05-06 09:46 | 49.21664 | 0.35259 | 36948 ft | 441 kts | 166° |
| 2026-05-06 09:46 | 49.15739 | 0.37743 | 36948 ft | 441 kts | 165° |
| 2026-05-06 09:47 | 49.09814 | 0.40223 | 36953 ft | 441 kts | 165° |
| 2026-05-06 09:47 | 49.03889 | 0.42699 | 36953 ft | 441 kts | 165° |
| 2026-05-06 09:48 | 48.97971 | 0.45176 | 36957 ft | 440 kts | 165° |
| 2026-05-06 09:48 | 48.92108 | 0.47620 | 36960 ft | 440 kts | 166° |
| 2026-05-06 09:49 | 48.86205 | 0.50066 | 36959 ft | 439 kts | 165° |
| 2026-05-06 09:49 | 48.80315 | 0.52501 | 36956 ft | 438 kts | 165° |
| 2026-05-06 09:50 | 48.74425 | 0.54898 | 36954 ft | 438 kts | 166° |
| 2026-05-06 09:50 | 48.68516 | 0.57205 | 36955 ft | 438 kts | 166° |
| 2026-05-06 09:51 | 48.62604 | 0.59488 | 36950 ft | 438 kts | 166° |
| 2026-05-06 09:51 | 48.56694 | 0.61777 | 36947 ft | 439 kts | 166° |
| 2026-05-06 09:52 | 48.50783 | 0.64092 | 36948 ft | 439 kts | 165° |
| 2026-05-06 09:52 | 48.44890 | 0.66473 | 36945 ft | 439 kts | 165° |
| 2026-05-06 09:53 | 48.38994 | 0.68896 | 36937 ft | 439 kts | 165° |
| 2026-05-06 09:53 | 48.33098 | 0.71314 | 36942 ft | 439 kts | 166° |
| 2026-05-06 09:54 | 48.27233 | 0.73687 | 36940 ft | 440 kts | 165° |
| 2026-05-06 09:54 | 48.21317 | 0.76059 | 36942 ft | 440 kts | 166° |
| 2026-05-06 09:55 | 48.15393 | 0.78379 | 36948 ft | 440 kts | 166° |
| 2026-05-06 09:55 | 48.09466 | 0.80686 | 36949 ft | 439 kts | 166° |
| 2026-05-06 09:56 | 48.03555 | 0.82989 | 36948 ft | 439 kts | 166° |
| 2026-05-06 09:56 | 47.97655 | 0.85293 | 36937 ft | 438 kts | 166° |
| 2026-05-06 09:57 | 47.91767 | 0.87594 | 36945 ft | 437 kts | 166° |
| 2026-05-06 09:57 | 47.85876 | 0.89879 | 36948 ft | 436 kts | 166° |
| 2026-05-06 09:58 | 47.80010 | 0.92162 | 36947 ft | 436 kts | 166° |
| 2026-05-06 09:58 | 47.74175 | 0.94430 | 36935 ft | 436 kts | 166° |
| 2026-05-06 09:59 | 47.68227 | 0.96239 | 36937 ft | 436 kts | 170° |
| 2026-05-06 09:59 | 47.62239 | 0.97705 | 36936 ft | 436 kts | 171° |
| 2026-05-06 10:00 | 47.56252 | 0.99122 | 36923 ft | 436 kts | 171° |
| 2026-05-06 10:00 | 47.50260 | 1.00581 | 36915 ft | 436 kts | 171° |
| 2026-05-06 10:01 | 47.44269 | 1.02056 | 36914 ft | 437 kts | 171° |
| 2026-05-06 10:01 | 47.39281 | 1.03280 | 36915 ft | 437 kts | 171° |
| 2026-05-06 10:02 | 47.32299 | 1.04983 | 36904 ft | 438 kts | 171° |
| 2026-05-06 10:02 | 47.26273 | 1.06459 | 36902 ft | 439 kts | 172° |
| 2026-05-06 10:03 | 47.21225 | 1.07691 | 36902 ft | 439 kts | 172° |
| 2026-05-06 10:03 | 47.15184 | 1.09149 | 36901 ft | 440 kts | 172° |
| 2026-05-06 10:04 | 47.09184 | 1.10605 | 36899 ft | 440 kts | 171° |
| 2026-05-06 10:04 | 47.03141 | 1.12077 | 36899 ft | 440 kts | 171° |
| 2026-05-06 10:05 | 46.97089 | 1.13536 | 36902 ft | 440 kts | 172° |
| 2026-05-06 10:05 | 46.91041 | 1.14996 | 36900 ft | 441 kts | 171° |
| 2026-05-06 10:06 | 46.84981 | 1.16450 | 36903 ft | 441 kts | 172° |
| 2026-05-06 10:06 | 46.78929 | 1.17906 | 36903 ft | 441 kts | 172° |
| 2026-05-06 10:07 | 46.72869 | 1.19355 | 36904 ft | 441 kts | 172° |
| 2026-05-06 10:07 | 46.66809 | 1.20799 | 36907 ft | 441 kts | 172° |
| 2026-05-06 10:08 | 46.60743 | 1.22240 | 36908 ft | 441 kts | 172° |
| 2026-05-06 10:08 | 46.54730 | 1.23671 | 36911 ft | 440 kts | 172° |
| 2026-05-06 10:09 | 46.48686 | 1.25105 | 36913 ft | 440 kts | 172° |
| 2026-05-06 10:09 | 46.42650 | 1.26523 | 36912 ft | 439 kts | 172° |
| 2026-05-06 10:10 | 46.36618 | 1.27947 | 36910 ft | 439 kts | 172° |
| 2026-05-06 10:10 | 46.30591 | 1.29377 | 36904 ft | 439 kts | 172° |
| 2026-05-06 10:11 | 46.24561 | 1.30798 | 36902 ft | 439 kts | 173° |
| 2026-05-06 10:11 | 46.18539 | 1.32210 | 36905 ft | 438 kts | 172° |
| 2026-05-06 10:12 | 46.12517 | 1.33620 | 36902 ft | 439 kts | 172° |
| 2026-05-06 10:12 | 46.06486 | 1.35028 | 36909 ft | 439 kts | 172° |
| 2026-05-06 10:13 | 46.00459 | 1.36434 | 36917 ft | 439 kts | 173° |
| 2026-05-06 10:13 | 45.94469 | 1.37812 | 36916 ft | 439 kts | 172° |
| 2026-05-06 10:14 | 45.88436 | 1.39209 | 36922 ft | 439 kts | 172° |
| 2026-05-06 10:14 | 45.82395 | 1.40611 | 36922 ft | 439 kts | 173° |
| 2026-05-06 10:15 | 45.76351 | 1.42005 | 36914 ft | 440 kts | 172° |
| 2026-05-06 10:15 | 45.70314 | 1.43403 | 36918 ft | 440 kts | 173° |
| 2026-05-06 10:16 | 45.64265 | 1.44798 | 36917 ft | 440 kts | 173° |
| 2026-05-06 10:16 | 45.58223 | 1.46188 | 36928 ft | 440 kts | 173° |
| 2026-05-06 10:17 | 45.52177 | 1.47563 | 36922 ft | 439 kts | 173° |
| 2026-05-06 10:17 | 45.46135 | 1.48933 | 36922 ft | 439 kts | 173° |
| 2026-05-06 10:18 | 45.40138 | 1.50291 | 36929 ft | 439 kts | 173° |
| 2026-05-06 10:18 | 45.34113 | 1.51666 | 36934 ft | 439 kts | 173° |
| 2026-05-06 10:19 | 45.28083 | 1.53045 | 36943 ft | 438 kts | 173° |
| 2026-05-06 10:19 | 45.22057 | 1.54411 | 36949 ft | 438 kts | 173° |
| 2026-05-06 10:20 | 45.16033 | 1.55771 | 36943 ft | 438 kts | 174° |
| 2026-05-06 10:20 | 45.10008 | 1.57126 | 36953 ft | 438 kts | 174° |
| 2026-05-06 10:21 | 45.03990 | 1.58486 | 36952 ft | 438 kts | 174° |
| 2026-05-06 10:21 | 44.98009 | 1.59831 | 36928 ft | 438 kts | 174° |
| 2026-05-06 10:22 | 44.91997 | 1.61172 | 36929 ft | 438 kts | 174° |
| 2026-05-06 10:22 | 44.85980 | 1.62514 | 36928 ft | 437 kts | 174° |
| 2026-05-06 10:23 | 44.79970 | 1.63860 | 36932 ft | 437 kts | 174° |
| 2026-05-06 10:23 | 44.73955 | 1.65206 | 36931 ft | 437 kts | 174° |
| 2026-05-06 10:24 | 44.67943 | 1.66538 | 36937 ft | 437 kts | 174° |
| 2026-05-06 10:24 | 44.61924 | 1.67860 | 36939 ft | 438 kts | 174° |
| 2026-05-06 10:25 | 44.55917 | 1.69184 | 36937 ft | 437 kts | 174° |
| 2026-05-06 10:25 | 44.49944 | 1.70504 | 36943 ft | 437 kts | 174° |
| 2026-05-06 10:26 | 44.43945 | 1.71829 | 36951 ft | 436 kts | 174° |
| 2026-05-06 10:26 | 44.37948 | 1.73152 | 36938 ft | 436 kts | 174° |
| 2026-05-06 10:27 | 44.31960 | 1.74469 | 36953 ft | 436 kts | 174° |
| 2026-05-06 10:27 | 44.25971 | 1.75779 | 36960 ft | 435 kts | 174° |
| 2026-05-06 10:28 | 44.19995 | 1.77072 | 36952 ft | 435 kts | 175° |
| 2026-05-06 10:28 | 44.14025 | 1.78375 | 36955 ft | 434 kts | 175° |
| 2026-05-06 10:29 | 44.08058 | 1.79688 | 36961 ft | 434 kts | 175° |
| 2026-05-06 10:29 | 44.02098 | 1.80983 | 36958 ft | 433 kts | 175° |
| 2026-05-06 10:30 | 43.96142 | 1.82260 | 36953 ft | 433 kts | 175° |
| 2026-05-06 10:30 | 43.90172 | 1.83167 | 36955 ft | 431 kts | 180° |
| 2026-05-06 10:31 | 43.84193 | 1.83636 | 36965 ft | 430 kts | 181° |
| 2026-05-06 10:31 | 43.78253 | 1.84076 | 36962 ft | 430 kts | 181° |
| 2026-05-06 10:32 | 43.72277 | 1.84629 | 36974 ft | 430 kts | 180° |
| 2026-05-06 10:32 | 43.67308 | 1.85128 | 36979 ft | 430 kts | 180° |
| 2026-05-06 10:33 | 43.60326 | 1.85821 | 36974 ft | 430 kts | 181° |
| 2026-05-06 10:33 | 43.54356 | 1.86401 | 36977 ft | 430 kts | 181° |
| 2026-05-06 10:34 | 43.48395 | 1.86970 | 36974 ft | 429 kts | 181° |
| 2026-05-06 10:34 | 43.42427 | 1.87547 | 36981 ft | 429 kts | 181° |
| 2026-05-06 10:35 | 43.36509 | 1.88114 | 36970 ft | 429 kts | 181° |
| 2026-05-06 10:35 | 43.30564 | 1.88678 | 36977 ft | 428 kts | 181° |
| 2026-05-06 10:36 | 43.24618 | 1.89252 | 36983 ft | 428 kts | 181° |
| 2026-05-06 10:36 | 43.18673 | 1.89819 | 36976 ft | 428 kts | 181° |
| 2026-05-06 10:37 | 43.12732 | 1.90388 | 36982 ft | 428 kts | 181° |
| 2026-05-06 10:37 | 43.06797 | 1.90952 | 36974 ft | 427 kts | 181° |
| 2026-05-06 10:38 | 43.00870 | 1.91513 | 36980 ft | 426 kts | 181° |
| 2026-05-06 10:38 | 42.94970 | 1.92068 | 36975 ft | 424 kts | 181° |
| 2026-05-06 10:39 | 42.89093 | 1.92626 | 36983 ft | 423 kts | 181° |
| 2026-05-06 10:39 | 42.83265 | 1.93184 | 36980 ft | 422 kts | 181° |
| 2026-05-06 10:40 | 42.77401 | 1.93732 | 36985 ft | 422 kts | 182° |
| 2026-05-06 10:40 | 42.71554 | 1.94278 | 36972 ft | 421 kts | 181° |
| 2026-05-06 10:41 | 42.65720 | 1.95246 | 36955 ft | 428 kts | 171° |
| 2026-05-06 10:41 | 42.59957 | 1.97336 | 36944 ft | 429 kts | 171° |
| 2026-05-06 10:42 | 42.54189 | 1.99412 | 36939 ft | 428 kts | 171° |
| 2026-05-06 10:42 | 42.48427 | 2.01473 | 36936 ft | 428 kts | 171° |
| 2026-05-06 10:43 | 42.42663 | 2.03542 | 36942 ft | 429 kts | 171° |
| 2026-05-06 10:44 | 42.34013 | 2.06628 | 36925 ft | 428 kts | 172° |
| 2026-05-06 10:44 | 42.28256 | 2.08671 | 36930 ft | 428 kts | 172° |
| 2026-05-06 10:45 | 42.22500 | 2.10715 | 36928 ft | 427 kts | 172° |
| 2026-05-06 10:45 | 42.16779 | 2.12750 | 36924 ft | 428 kts | 172° |
| 2026-05-06 10:46 | 42.11031 | 2.14785 | 36939 ft | 427 kts | 172° |
| 2026-05-06 10:46 | 42.05284 | 2.16814 | 36954 ft | 427 kts | 172° |
| 2026-05-06 10:47 | 41.99534 | 2.18831 | 36962 ft | 427 kts | 172° |
| 2026-05-06 10:47 | 41.93789 | 2.20843 | 36940 ft | 426 kts | 172° |
| 2026-05-06 10:48 | 41.88046 | 2.22858 | 36960 ft | 426 kts | 172° |
| 2026-05-06 10:48 | 41.82308 | 2.24874 | 36969 ft | 426 kts | 172° |
| 2026-05-06 10:49 | 41.76575 | 2.26877 | 36974 ft | 425 kts | 172° |
| 2026-05-06 10:49 | 41.70852 | 2.28885 | 36953 ft | 425 kts | 172° |
| 2026-05-06 10:50 | 41.65144 | 2.30879 | 36980 ft | 423 kts | 172° |
| 2026-05-06 10:50 | 41.59450 | 2.32863 | 36975 ft | 422 kts | 172° |
| 2026-05-06 10:51 | 41.53802 | 2.34824 | 36941 ft | 422 kts | 172° |
| 2026-05-06 10:51 | 41.49043 | 2.36472 | 36962 ft | 421 kts | 172° |
| 2026-05-06 10:52 | 41.42451 | 2.38747 | 36970 ft | 421 kts | 172° |
| 2026-05-06 10:52 | 41.36783 | 2.40712 | 36984 ft | 421 kts | 172° |
| 2026-05-06 10:53 | 41.32070 | 2.42339 | 36951 ft | 421 kts | 172° |
| 2026-05-06 10:53 | 41.29227 | 2.43315 | 36779 ft | 421 kts | 173° |
| 2026-05-06 10:53 | 41.26390 | 2.44285 | 36526 ft | 420 kts | 173° |
| 2026-05-06 10:53 | 41.23560 | 2.45252 | 36270 ft | 420 kts | 173° |
| 2026-05-06 10:54 | 41.20732 | 2.46217 | 36015 ft | 419 kts | 173° |
| 2026-05-06 10:54 | 41.17905 | 2.47186 | 35765 ft | 419 kts | 173° |
| 2026-05-06 10:54 | 41.15086 | 2.48160 | 35520 ft | 418 kts | 173° |
| 2026-05-06 10:54 | 41.12279 | 2.49132 | 35273 ft | 416 kts | 173° |
| 2026-05-06 10:55 | 41.09491 | 2.50096 | 35010 ft | 414 kts | 173° |
| 2026-05-06 10:55 | 41.06710 | 2.51059 | 34498 ft | 414 kts | 174° |
| 2026-05-06 10:55 | 41.03885 | 2.52015 | 33506 ft | 422 kts | 174° |
| 2026-05-06 10:55 | 41.01036 | 2.52970 | 32768 ft | 421 kts | 174° |
| 2026-05-06 10:56 | 40.98206 | 2.53925 | 32142 ft | 418 kts | 174° |
| 2026-05-06 10:56 | 40.95402 | 2.54880 | 31574 ft | 415 kts | 173° |
| 2026-05-06 10:56 | 40.92621 | 2.55833 | 31015 ft | 411 kts | 174° |
| 2026-05-06 10:56 | 40.89903 | 2.56764 | 30487 ft | 407 kts | 173° |
| 2026-05-06 10:57 | 40.87171 | 2.57699 | 29886 ft | 404 kts | 174° |
| 2026-05-06 10:57 | 40.84460 | 2.58626 | 29303 ft | 399 kts | 174° |
| 2026-05-06 10:57 | 40.81788 | 2.59541 | 28697 ft | 396 kts | 174° |
| 2026-05-06 10:57 | 40.79140 | 2.60442 | 28257 ft | 389 kts | 173° |
| 2026-05-06 10:58 | 40.76542 | 2.61326 | 27837 ft | 382 kts | 174° |
| 2026-05-06 10:58 | 40.73985 | 2.62192 | 27401 ft | 376 kts | 174° |
| 2026-05-06 10:58 | 40.71463 | 2.63046 | 26971 ft | 370 kts | 174° |
| 2026-05-06 10:58 | 40.68981 | 2.63884 | 26551 ft | 365 kts | 174° |
| 2026-05-06 10:59 | 40.66539 | 2.64706 | 26125 ft | 360 kts | 174° |
| 2026-05-06 10:59 | 40.64120 | 2.65521 | 25694 ft | 356 kts | 173° |
| 2026-05-06 10:59 | 40.61733 | 2.66324 | 25256 ft | 353 kts | 173° |
| 2026-05-06 10:59 | 40.59363 | 2.67121 | 24809 ft | 350 kts | 173° |
| 2026-05-06 11:00 | 40.57015 | 2.67911 | 24376 ft | 347 kts | 173° |
| 2026-05-06 11:00 | 40.54686 | 2.68692 | 23935 ft | 345 kts | 173° |
| 2026-05-06 11:00 | 40.52363 | 2.69471 | 23478 ft | 343 kts | 173° |
| 2026-05-06 11:00 | 40.50073 | 2.70351 | 22972 ft | 346 kts | 166° |
| 2026-05-06 11:01 | 40.47901 | 2.71773 | 22509 ft | 350 kts | 158° |
| 2026-05-06 11:01 | 40.45808 | 2.73309 | 22053 ft | 348 kts | 158° |
| 2026-05-06 11:01 | 40.43702 | 2.74846 | 21573 ft | 346 kts | 158° |
| 2026-05-06 11:01 | 40.41603 | 2.76369 | 21146 ft | 343 kts | 158° |
| 2026-05-06 11:02 | 40.39512 | 2.77876 | 20663 ft | 341 kts | 160° |
| 2026-05-06 11:02 | 40.37303 | 2.79028 | 19776 ft | 347 kts | 167° |
| 2026-05-06 11:02 | 40.35001 | 2.80064 | 19204 ft | 349 kts | 167° |
| 2026-05-06 11:02 | 40.32712 | 2.81095 | 18771 ft | 347 kts | 167° |
| 2026-05-06 11:03 | 40.30433 | 2.82121 | 18338 ft | 345 kts | 167° |
| 2026-05-06 11:03 | 40.28168 | 2.83139 | 17874 ft | 343 kts | 167° |
| 2026-05-06 11:03 | 40.25924 | 2.84149 | 17440 ft | 339 kts | 167° |
| 2026-05-06 11:03 | 40.23701 | 2.85151 | 17033 ft | 336 kts | 167° |
| 2026-05-06 11:04 | 40.21496 | 2.86141 | 16603 ft | 333 kts | 166° |
| 2026-05-06 11:04 | 40.19310 | 2.87123 | 16219 ft | 331 kts | 166° |
| 2026-05-06 11:04 | 40.17170 | 2.88088 | 15831 ft | 328 kts | 166° |
| 2026-05-06 11:04 | 40.15017 | 2.89058 | 15438 ft | 327 kts | 166° |
| 2026-05-06 11:05 | 40.12871 | 2.90025 | 15046 ft | 325 kts | 166° |
| 2026-05-06 11:05 | 40.10733 | 2.90988 | 14655 ft | 324 kts | 166° |
| 2026-05-06 11:05 | 40.08606 | 2.91941 | 14263 ft | 323 kts | 166° |
| 2026-05-06 11:05 | 40.06478 | 2.92893 | 13862 ft | 322 kts | 166° |
| 2026-05-06 11:06 | 40.04359 | 2.93841 | 13447 ft | 322 kts | 166° |
| 2026-05-06 11:06 | 40.02249 | 2.94786 | 13039 ft | 319 kts | 166° |
| 2026-05-06 11:06 | 40.00154 | 2.95725 | 12649 ft | 317 kts | 166° |
| 2026-05-06 11:06 | 39.98070 | 2.96659 | 12252 ft | 315 kts | 165° |
| 2026-05-06 11:07 | 39.96002 | 2.97583 | 11856 ft | 313 kts | 165° |
| 2026-05-06 11:07 | 39.93949 | 2.98497 | 11461 ft | 311 kts | 165° |
| 2026-05-06 11:07 | 39.91901 | 2.99406 | 11048 ft | 310 kts | 165° |
| 2026-05-06 11:07 | 39.89861 | 3.00310 | 10655 ft | 309 kts | 165° |
| 2026-05-06 11:08 | 39.87827 | 3.01212 | 10244 ft | 308 kts | 165° |
| 2026-05-06 11:08 | 39.85814 | 3.02110 | 10003 ft | 302 kts | 165° |
| 2026-05-06 11:08 | 39.83893 | 3.02969 | 9842 ft | 291 kts | 165° |
| 2026-05-06 11:08 | 39.81995 | 3.03815 | 9550 ft | 286 kts | 165° |
| 2026-05-06 11:09 | 39.80118 | 3.04650 | 9159 ft | 284 kts | 165° |
| 2026-05-06 11:09 | 39.78254 | 3.05477 | 8776 ft | 282 kts | 164° |
| 2026-05-06 11:09 | 39.76394 | 3.06275 | 8375 ft | 280 kts | 168° |
| 2026-05-06 11:09 | 39.74495 | 3.06457 | 7799 ft | 271 kts | 190° |
| 2026-05-06 11:10 | 39.72730 | 3.05688 | 7081 ft | 268 kts | 212° |
| 2026-05-06 11:10 | 39.71316 | 3.04126 | 6413 ft | 264 kts | 227° |
| 2026-05-06 11:10 | 39.70064 | 3.02454 | 5926 ft | 256 kts | 226° |
| 2026-05-06 11:10 | 39.68835 | 3.00875 | 5433 ft | 248 kts | 224° |
| 2026-05-06 11:11 | 39.67605 | 2.99322 | 4887 ft | 245 kts | 224° |
| 2026-05-06 11:11 | 39.66399 | 2.97803 | 4403 ft | 239 kts | 224° |
| 2026-05-06 11:11 | 39.65215 | 2.96329 | 3967 ft | 234 kts | 224° |
| 2026-05-06 11:11 | 39.64198 | 2.94661 | 3340 ft | 237 kts | 238° |
| 2026-05-06 11:12 | 39.63379 | 2.92845 | 2960 ft | 230 kts | 240° |
| 2026-05-06 11:12 | 39.62592 | 2.91079 | 2609 ft | 219 kts | 239° |
| 2026-05-06 11:12 | 39.61839 | 2.89471 | 2301 ft | 200 kts | 237° |
| 2026-05-06 11:12 | 39.61134 | 2.88016 | 2100 ft | 183 kts | 238° |
| 2026-05-06 11:13 | 39.60487 | 2.86656 | 1871 ft | 171 kts | 238° |
| 2026-05-06 11:13 | 39.59888 | 2.85387 | 1661 ft | 160 kts | 238° |
| 2026-05-06 11:13 | 39.59323 | 2.84190 | 1435 ft | 152 kts | 238° |
| 2026-05-06 11:13 | 39.58780 | 2.83037 | 1248 ft | 149 kts | 238° |
| 2026-05-06 11:14 | 39.58243 | 2.81899 | 1054 ft | 147 kts | 238° |
| 2026-05-06 11:14 | 39.57710 | 2.80768 | 860 ft | 146 kts | 238° |
| 2026-05-06 11:14 | 39.57187 | 2.79653 | 674 ft | 143 kts | 238° |
| 2026-05-06 11:14 | 39.56672 | 2.78567 | 482 ft | 140 kts | 237° |
| 2026-05-06 11:15 | 39.56165 | 2.77491 | 308 ft | 138 kts | 238° |
| 2026-05-06 11:15 | 39.55669 | 2.76432 | 124 ft | 136 kts | 238° |
| 2026-05-06 11:15 | 39.55187 | 2.75418 | 39 ft | 122 kts | 239° |
| 2026-05-06 11:15 | 39.54831 | 2.74662 | 38 ft | 74 kts | 238° |
| 2026-05-06 11:16 | 39.54639 | 2.74259 | 37 ft | 38 kts | 238° |
| 2026-05-06 11:16 | 39.54554 | 2.73967 | 38 ft | 33 kts | 265° |
| 2026-05-06 11:16 | 39.54557 | 2.73762 | 38 ft | 13 kts | 297° |
| 2026-05-06 11:16 | 39.54624 | 2.73781 | 37 ft | 11 kts | 50° |
| 2026-05-06 11:17 | 39.54663 | 2.73861 | 38 ft | 10 kts | 58° |
| 2026-05-06 11:17 | 39.54699 | 2.73936 | 38 ft | 9 kts | 58° |
| 2026-05-06 11:17 | 39.54731 | 2.74006 | 37 ft | 9 kts | 60° |
| 2026-05-06 11:17 | 39.54761 | 2.74073 | 38 ft | 8 kts | 60° |
| 2026-05-06 11:18 | 39.54811 | 2.74124 | 38 ft | 12 kts | 0° |
| 2026-05-06 11:18 | 39.54902 | 2.74067 | 38 ft | 15 kts | 330° |
| 2026-05-06 11:18 | 39.54992 | 2.74000 | 38 ft | 15 kts | 324° |
| 2026-05-06 11:18 | 39.55076 | 2.73927 | 38 ft | 14 kts | 327° |
| 2026-05-06 11:19 | 39.55149 | 2.73871 | 38 ft | 10 kts | 329° |
| 2026-05-06 11:19 | 39.55207 | 2.73826 | 38 ft | 9 kts | 329° |
| 2026-05-06 11:19 | 39.55258 | 2.73786 | 38 ft | 8 kts | 329° |
| 2026-05-06 11:19 | 39.55315 | 2.73741 | 38 ft | 12 kts | 328° |
| 2026-05-06 11:20 | 39.55425 | 2.73653 | 38 ft | 22 kts | 329° |
| 2026-05-06 11:20 | 39.55496 | 2.73580 | 38 ft | 9 kts | 283° |
| 2026-05-06 11:20 | 39.55462 | 2.73484 | 38 ft | 15 kts | 238° |
| 2026-05-06 11:20 | 39.55405 | 2.73364 | 37 ft | 17 kts | 239° |
| 2026-05-06 11:21 | 39.55340 | 2.73226 | 38 ft | 19 kts | 238° |
| 2026-05-06 11:21 | 39.55267 | 2.73072 | 38 ft | 21 kts | 238° |
| 2026-05-06 11:21 | 39.55193 | 2.72918 | 38 ft | 17 kts | 238° |
| 2026-05-06 11:21 | 39.55140 | 2.72887 | 38 ft | 9 kts | 163° |
| 2026-05-06 11:22 | 39.55109 | 2.72899 | 38 ft | 2 kts | 162° |
| 2026-05-06 11:22 | 39.55106 | 2.72900 | 38 ft | 0 kts | 162° |
| 2026-05-06 11:22 | 39.55102 | 2.72902 | 38 ft | 1 kts | 163° |